createdAt,value
2022-11-25T00:02:01.980Z,99.90
2022-11-25T00:04:49.300Z,120.90
2022-11-25T00:07:36.348Z,108.50
2022-11-25T00:10:23.049Z,81.80
2022-11-25T00:13:09.878Z,78.60
2022-11-25T00:15:56.492Z,100.60
2022-11-25T00:18:47.634Z,99.00
2022-11-25T00:21:34.762Z,83.70
2022-11-25T00:24:21.628Z,93.20
2022-11-25T00:27:08.526Z,93.30
2022-11-25T00:29:54.976Z,80.30
2022-11-25T00:32:41.738Z,86.40
2022-11-25T00:35:28.614Z,69.40
2022-11-25T00:38:15.843Z,80.40
2022-11-25T00:41:21.235Z,89.10
2022-11-25T00:44:30.313Z,72.10
2022-11-25T00:47:18.419Z,96.20
2022-11-25T00:50:05.239Z,113.80
2022-11-25T00:52:51.772Z,93.00
2022-11-25T00:55:58.444Z,88.20
2022-11-25T00:58:45.385Z,78.60
2022-11-25T01:01:32.459Z,87.50
2022-11-25T01:04:19.303Z,86.40
2022-11-25T01:07:06.034Z,98.70
2022-11-25T01:09:54.230Z,95.50
2022-11-25T01:12:40.909Z,106.60
2022-11-25T01:15:27.629Z,93.20
2022-11-25T01:18:14.391Z,98.00
2022-11-25T01:21:07.255Z,99.60
2022-11-25T01:23:53.996Z,95.00
2022-11-25T01:26:40.943Z,107.20
2022-11-25T01:29:27.858Z,90.00
2022-11-25T01:32:14.392Z,116.90
2022-11-25T01:35:00.937Z,105.80
2022-11-25T01:37:48.288Z,104.00
2022-11-25T01:40:35.743Z,112.70
2022-11-25T01:43:22.520Z,105.00
2022-11-25T01:46:21.930Z,104.60
2022-11-25T01:49:12.019Z,107.20
2022-11-25T01:52:01.636Z,119.70
2022-11-25T01:54:55.693Z,112.40
2022-11-25T01:57:53.782Z,129.00
2022-11-25T02:06:36.769Z,116.50
2022-11-25T02:09:23.683Z,115.50
2022-11-25T02:12:17.623Z,120.90
2022-11-25T02:15:10.549Z,112.70
2022-11-25T02:18:02.671Z,127.40
2022-11-25T02:20:54.873Z,118.50
2022-11-25T02:23:59.059Z,120.20
2022-11-25T02:26:45.907Z,128.30
2022-11-25T02:29:33.095Z,109.90
2022-11-25T02:32:24.632Z,119.60
2022-11-25T02:35:39.241Z,115.00
2022-11-25T02:38:59.071Z,105.40
2022-11-25T02:41:55.906Z,83.00
2022-11-25T02:44:48.523Z,112.50
2022-11-25T02:50:36.279Z,103.40
2022-11-25T02:56:21.845Z,99.80
2022-11-25T02:59:13.744Z,134.20
2022-11-25T03:02:06.118Z,109.30
2022-11-25T03:04:57.889Z,108.00
2022-11-25T03:08:01.033Z,109.70
2022-11-25T03:10:48.657Z,91.10
2022-11-25T03:13:41.725Z,85.00
2022-11-25T03:16:33.700Z,124.60
2022-11-25T03:19:25.506Z,119.00
2022-11-25T03:22:17.488Z,110.30
2022-11-25T03:25:09.912Z,119.90
2022-11-25T03:28:02.225Z,108.60
2022-11-25T03:30:54.020Z,100.50
2022-11-25T03:35:23.921Z,102.70
2022-11-25T03:38:15.542Z,100.20
2022-11-25T03:41:07.328Z,118.40
2022-11-25T03:43:59.573Z,102.90
2022-11-25T03:46:55.024Z,110.60
2022-11-25T03:49:46.966Z,108.20
2022-11-25T03:52:38.613Z,104.40
2022-11-25T03:55:30.770Z,106.50
2022-11-25T03:58:27.189Z,113.50
2022-11-25T04:01:19.577Z,119.90
2022-11-25T04:04:12.287Z,94.70
2022-11-25T04:07:03.943Z,106.30
2022-11-25T04:11:21.506Z,104.80
2022-11-25T04:15:27.005Z,86.70
2022-11-25T04:18:35.304Z,95.50
2022-11-25T04:21:28.213Z,94.80
2022-11-25T04:27:12.305Z,106.10
2022-11-25T04:30:05.040Z,94.10
2022-11-25T04:33:00.388Z,95.90
2022-11-25T04:35:52.891Z,98.70
2022-11-25T04:38:45.529Z,85.90
2022-11-25T04:41:37.090Z,80.80
2022-11-25T04:44:30.160Z,94.70
2022-11-25T04:47:21.580Z,109.80
2022-11-25T04:50:19.465Z,98.30
2022-11-25T04:53:20.090Z,81.70
2022-11-25T04:56:16.652Z,88.50
2022-11-25T04:59:27.681Z,82.30
2022-11-25T05:02:24.882Z,80.20
2022-11-25T05:06:48.038Z,111.20
2022-11-25T05:09:41.033Z,75.10
2022-11-25T05:12:39.748Z,103.80
2022-11-25T05:15:33.976Z,99.40
2022-11-25T05:18:24.306Z,89.30
2022-11-25T05:21:16.849Z,97.10
2022-11-25T05:24:09.239Z,95.70
2022-11-25T05:26:56.004Z,81.30
2022-11-25T05:29:54.277Z,96.10
2022-11-25T05:34:11.759Z,85.30
2022-11-25T05:36:59.033Z,86.80
2022-11-25T05:39:51.579Z,90.60
2022-11-25T05:43:00.149Z,77.50
2022-11-25T05:45:48.639Z,71.60
2022-11-25T05:48:36.164Z,86.30
2022-11-25T05:51:28.495Z,81.40
2022-11-25T05:54:15.553Z,53.60
2022-11-25T05:57:02.581Z,64.80
2022-11-25T06:00:50.583Z,73.70
2022-11-25T06:03:55.509Z,74.10
2022-11-25T06:06:42.800Z,68.70
2022-11-25T06:09:35.528Z,72.10
2022-11-25T06:12:56.188Z,67.60
2022-11-25T06:15:50.224Z,73.10
2022-11-25T06:18:42.844Z,68.40
2022-11-25T06:21:34.593Z,78.70
2022-11-25T06:24:26.149Z,84.30
2022-11-25T06:28:13.460Z,75.70
2022-11-25T06:32:38.984Z,79.00
2022-11-25T06:35:56.830Z,82.50
2022-11-25T06:38:52.731Z,83.30
2022-11-25T06:41:39.617Z,84.80
2022-11-25T06:44:31.316Z,86.40
2022-11-25T06:47:22.884Z,81.60
2022-11-25T06:51:00.677Z,82.10
2022-11-25T06:55:22.632Z,86.70
2022-11-25T06:58:34.814Z,73.30
2022-11-25T07:01:25.599Z,79.70
2022-11-25T07:04:15.908Z,75.70
2022-11-25T07:09:19.774Z,77.90
2022-11-25T07:12:12.458Z,74.00
2022-11-25T07:17:56.304Z,63.70
2022-11-25T07:20:47.993Z,62.10
2022-11-25T07:23:34.950Z,73.90
2022-11-25T07:26:27.858Z,86.60
2022-11-25T07:32:33.450Z,89.90
2022-11-25T07:35:25.667Z,72.90
2022-11-25T07:38:17.368Z,65.10
2022-11-25T07:41:13.302Z,67.60
2022-11-25T07:44:01.609Z,86.00
2022-11-25T07:46:49.989Z,95.90
2022-11-25T07:49:37.216Z,94.30
2022-11-25T07:52:28.862Z,87.80
2022-11-25T07:55:15.958Z,90.70
2022-11-25T07:58:07.470Z,82.30
2022-11-25T08:01:02.319Z,90.10
2022-11-25T08:06:29.755Z,75.00
2022-11-25T08:10:33.887Z,84.20
2022-11-25T08:14:11.149Z,95.70
2022-11-25T08:17:06.165Z,78.80
2022-11-25T08:19:58.333Z,66.30
2022-11-25T08:22:49.944Z,65.50
2022-11-25T08:25:47.477Z,74.10
2022-11-25T08:31:19.301Z,73.50
2022-11-25T08:34:16.673Z,83.90
2022-11-25T08:37:09.511Z,63.80
2022-11-25T08:40:01.673Z,63.00
2022-11-25T08:42:54.399Z,69.90
2022-11-25T08:45:46.068Z,76.90
2022-11-25T08:48:38.421Z,66.00
2022-11-25T08:54:17.250Z,71.50
2022-11-25T08:57:09.597Z,71.70
2022-11-25T09:02:53.603Z,67.30
2022-11-25T09:08:38.629Z,88.00
2022-11-25T09:11:30.550Z,66.00
2022-11-25T09:14:22.652Z,68.90
2022-11-25T09:17:15.777Z,73.00
2022-11-25T09:20:07.758Z,91.50
2022-11-25T09:23:00.249Z,70.80
2022-11-25T09:28:44.412Z,62.60
2022-11-25T09:33:01.743Z,67.60
2022-11-25T09:35:56.207Z,75.40
2022-11-25T09:38:46.177Z,53.60
2022-11-25T09:41:59.739Z,64.80
2022-11-25T09:45:12.999Z,67.30
2022-11-25T09:48:23.846Z,63.40
2022-11-25T09:51:19.802Z,86.40
2022-11-25T09:54:12.362Z,116.70
2022-11-25T09:57:24.402Z,89.60
2022-11-25T10:00:13.168Z,90.30
2022-11-25T10:03:19.085Z,84.30
2022-11-25T10:06:20.210Z,102.30
2022-11-25T10:09:14.181Z,74.20
2022-11-25T10:12:05.317Z,99.80
2022-11-25T10:15:01.157Z,77.80
2022-11-25T10:17:50.304Z,69.30
2022-11-25T10:20:42.556Z,123.50
2022-11-25T10:23:39.561Z,74.00
2022-11-25T10:26:37.192Z,87.80
2022-11-25T10:29:30.119Z,84.30
2022-11-25T10:32:25.816Z,100.10
2022-11-25T10:35:24.479Z,107.50
2022-11-25T10:38:20.074Z,87.40
2022-11-25T10:41:17.387Z,77.80
2022-11-25T10:44:19.877Z,106.90
2022-11-25T10:52:55.648Z,93.20
2022-11-25T10:56:19.780Z,96.60
2022-11-25T10:59:30.362Z,86.70
2022-11-25T11:02:29.914Z,104.80
2022-11-25T11:05:19.466Z,103.30
2022-11-25T11:08:18.269Z,116.20
2022-11-25T11:11:14.515Z,98.90
2022-11-25T11:14:14.478Z,100.80
2022-11-25T11:17:20.475Z,84.90
2022-11-25T11:21:36.576Z,90.30
2022-11-25T11:24:30.569Z,90.70
2022-11-25T11:27:25.591Z,123.60
2022-11-25T11:30:20.596Z,100.00
2022-11-25T11:33:27.973Z,105.90
2022-11-25T11:36:38.906Z,124.00
2022-11-25T11:39:35.329Z,124.40
2022-11-25T11:42:36.264Z,138.80
2022-11-25T11:45:35.683Z,125.10
2022-11-25T11:48:30.370Z,122.70
2022-11-25T11:51:24.969Z,115.80
2022-11-25T11:54:23.528Z,145.70
2022-11-25T11:57:18.336Z,156.70
2022-11-25T12:00:15.359Z,125.00
2022-11-25T12:03:19.054Z,146.80
2022-11-25T12:06:11.086Z,130.50
2022-11-25T12:09:11.585Z,142.40
2022-11-25T12:12:06.116Z,147.90
2022-11-25T12:15:29.285Z,167.90
2022-11-25T12:18:23.739Z,148.40
2022-11-25T12:21:17.337Z,147.20
2022-11-25T12:24:25.527Z,162.80
2022-11-25T12:27:20.214Z,156.50
2022-11-25T12:30:21.429Z,138.60
2022-11-25T12:33:19.765Z,150.40
2022-11-25T12:36:07.769Z,144.30
2022-11-25T12:39:16.641Z,132.40
2022-11-25T12:42:14.756Z,132.60
2022-11-25T12:45:25.362Z,153.70
2022-11-25T12:48:21.141Z,137.50
2022-11-25T12:51:07.170Z,122.20
2022-11-25T12:54:20.596Z,123.40
2022-11-25T12:57:11.593Z,141.70
2022-11-25T13:03:44.781Z,145.30
2022-11-25T13:06:49.895Z,141.00
2022-11-25T13:09:40.714Z,132.10
2022-11-25T13:12:31.069Z,135.00
2022-11-25T13:17:34.435Z,135.20
2022-11-25T13:20:24.599Z,125.50
2022-11-25T13:23:18.281Z,106.90
2022-11-25T13:26:27.774Z,106.60
2022-11-25T13:29:18.339Z,71.20
2022-11-25T13:33:42.974Z,84.90
2022-11-25T13:36:48.601Z,66.50
2022-11-25T13:39:40.395Z,70.30
2022-11-25T13:42:32.574Z,75.80
2022-11-25T13:45:26.401Z,63.00
2022-11-25T13:48:32.414Z,73.80
2022-11-25T13:51:24.830Z,63.50
2022-11-25T13:54:18.126Z,62.10
2022-11-25T13:57:13.348Z,56.80
2022-11-25T14:00:10.579Z,59.40
2022-11-25T14:03:20.481Z,68.10
2022-11-25T14:06:21.313Z,51.20
2022-11-25T14:09:19.063Z,51.10
2022-11-25T14:14:03.081Z,54.00
2022-11-25T14:17:03.569Z,49.50
2022-11-25T14:20:04.914Z,49.70
2022-11-25T14:22:59.233Z,50.10
2022-11-25T14:25:53.114Z,52.50
2022-11-25T14:28:54.124Z,49.50
2022-11-25T14:31:48.414Z,50.60
2022-11-25T14:34:41.788Z,53.30
2022-11-25T14:37:56.783Z,51.10
2022-11-25T14:40:54.929Z,53.90
2022-11-25T14:43:50.807Z,42.10
2022-11-25T14:46:53.596Z,41.70
2022-11-25T14:49:59.783Z,53.00
2022-11-25T14:52:57.219Z,41.20
2022-11-25T14:55:49.875Z,46.60
2022-11-25T14:58:42.487Z,48.90
2022-11-25T15:01:34.965Z,48.50
2022-11-25T15:04:23.166Z,42.90
2022-11-25T15:07:20.209Z,52.60
2022-11-25T15:10:30.069Z,46.00
2022-11-25T15:13:34.693Z,53.30
2022-11-25T15:19:01.002Z,50.60
2022-11-25T15:22:22.059Z,41.10
2022-11-25T15:25:09.139Z,52.30
2022-11-25T15:28:00.734Z,48.00
2022-11-25T15:31:11.085Z,39.80
2022-11-25T15:34:05.312Z,43.10
2022-11-25T15:37:02.872Z,42.20
2022-11-25T15:39:49.500Z,39.10
2022-11-25T15:42:42.446Z,49.40
2022-11-25T15:45:54.335Z,39.90
2022-11-25T15:48:45.356Z,47.60
2022-11-25T15:51:41.558Z,45.90
2022-11-25T15:54:38.294Z,39.50
2022-11-25T15:57:37.436Z,50.40
2022-11-25T16:00:29.577Z,51.30
2022-11-25T16:03:20.359Z,46.10
2022-11-25T16:06:21.563Z,41.30
2022-11-25T16:09:19.441Z,55.20
2022-11-25T16:12:16.887Z,51.90
2022-11-25T16:15:40.464Z,54.90
2022-11-25T16:18:41.675Z,42.00
2022-11-25T16:21:30.622Z,40.90
2022-11-25T16:24:25.028Z,52.10
2022-11-25T16:27:21.187Z,76.50
2022-11-25T16:30:16.841Z,44.80
2022-11-25T16:33:09.577Z,70.30
2022-11-25T16:36:03.232Z,38.20
2022-11-25T16:38:58.230Z,55.90
2022-11-25T16:41:55.460Z,50.80
2022-11-25T16:45:00.357Z,56.20
2022-11-25T16:47:52.622Z,46.10
2022-11-25T16:50:44.358Z,51.20
2022-11-25T16:53:36.232Z,43.50
2022-11-25T16:56:28.559Z,55.20
2022-11-25T17:02:00.562Z,81.80
2022-11-25T17:05:34.712Z,78.80
2022-11-25T17:09:38.007Z,113.10
2022-11-25T17:12:33.273Z,89.00
2022-11-25T17:15:36.822Z,67.60
2022-11-25T17:18:28.730Z,68.10
2022-11-25T17:21:20.981Z,86.10
2022-11-25T17:24:50.249Z,72.20
2022-11-25T17:27:42.471Z,56.70
2022-11-25T17:30:34.412Z,37.80
2022-11-25T17:33:26.411Z,42.70
2022-11-25T17:36:18.465Z,49.60
2022-11-25T17:41:48.348Z,60.80
2022-11-25T17:44:42.286Z,80.30
2022-11-25T17:47:34.176Z,58.00
2022-11-25T17:50:26.547Z,77.20
2022-11-25T17:53:13.510Z,63.60
2022-11-25T17:56:11.469Z,78.80
2022-11-25T17:59:04.719Z,68.70
2022-11-25T18:01:58.848Z,70.60
2022-11-25T18:04:51.504Z,69.80
2022-11-25T18:09:07.223Z,66.20
2022-11-25T18:12:01.325Z,74.20
2022-11-25T18:14:53.654Z,77.00
2022-11-25T18:17:45.823Z,78.00
2022-11-25T18:20:37.617Z,72.00
2022-11-25T18:23:24.954Z,68.80
2022-11-25T18:26:16.727Z,70.20
2022-11-25T18:29:13.001Z,58.90
2022-11-25T18:31:59.880Z,69.50
2022-11-25T18:34:46.820Z,78.10
2022-11-25T18:37:39.236Z,76.80
2022-11-25T18:40:31.746Z,56.30
2022-11-25T18:43:20.112Z,75.90
2022-11-25T18:46:07.241Z,72.20
2022-11-25T18:48:56.617Z,64.00
2022-11-25T18:51:44.131Z,170.00
2022-11-25T18:54:30.778Z,157.00
2022-11-25T18:57:17.797Z,115.90
2022-11-25T19:03:19.707Z,154.40
2022-11-25T19:06:07.188Z,160.80
2022-11-25T19:08:53.930Z,148.10
2022-11-25T19:11:47.066Z,128.10
2022-11-25T19:14:41.878Z,135.60
2022-11-25T19:17:28.783Z,115.20
2022-11-25T19:20:16.679Z,107.70
2022-11-25T19:23:18.133Z,95.20
2022-11-25T19:26:08.411Z,96.70
2022-11-25T19:29:02.490Z,122.40
2022-11-25T19:31:50.192Z,98.30
2022-11-25T19:34:44.229Z,91.50
2022-11-25T19:37:31.356Z,78.20
2022-11-25T19:40:19.439Z,84.10
2022-11-25T19:43:06.254Z,78.00
2022-11-25T19:45:53.338Z,95.00
2022-11-25T19:48:40.252Z,107.30
2022-11-25T19:51:33.139Z,105.70
2022-11-25T19:54:24.729Z,103.40
2022-11-25T19:57:15.899Z,107.70
2022-11-25T20:00:02.957Z,101.10
2022-11-25T20:03:00.193Z,106.40
2022-11-25T20:05:49.236Z,107.50
2022-11-25T20:08:41.084Z,107.10
2022-11-25T20:12:51.953Z,104.00
2022-11-25T20:15:39.487Z,89.20
2022-11-25T20:18:31.699Z,98.20
2022-11-25T20:21:26.748Z,92.70
2022-11-25T20:24:20.034Z,98.50
2022-11-25T20:27:12.271Z,96.80
2022-11-25T20:30:14.745Z,104.60
2022-11-25T20:33:01.257Z,110.20
2022-11-25T20:35:55.897Z,87.00
2022-11-25T20:38:49.370Z,99.50
2022-11-25T20:41:41.205Z,97.80
2022-11-25T20:44:28.586Z,100.20
2022-11-25T20:47:21.445Z,101.30
2022-11-25T20:51:42.320Z,99.10
2022-11-25T20:54:30.786Z,109.30
2022-11-25T20:57:17.346Z,104.70
2022-11-25T21:00:10.050Z,93.50
2022-11-25T21:02:57.390Z,109.10
2022-11-25T21:05:44.416Z,117.50
2022-11-25T21:08:31.678Z,89.10
2022-11-25T21:11:19.082Z,127.90
2022-11-25T21:14:10.991Z,114.20
2022-11-25T21:17:02.735Z,110.80
2022-11-25T21:19:49.399Z,105.00
2022-11-25T21:22:41.049Z,132.80
2022-11-25T21:25:33.807Z,129.00
2022-11-25T21:28:22.464Z,129.80
2022-11-25T21:31:19.855Z,126.00
2022-11-25T21:34:09.395Z,123.20
2022-11-25T21:37:01.432Z,131.40
2022-11-25T21:39:53.696Z,122.60
2022-11-25T21:42:45.497Z,111.80
2022-11-25T21:45:32.686Z,129.70
2022-11-25T21:48:25.387Z,128.00
2022-11-25T21:51:24.362Z,115.00
2022-11-25T21:54:16.300Z,102.80
2022-11-25T21:57:14.569Z,96.10
2022-11-25T22:00:01.027Z,81.10
2022-11-25T22:02:57.360Z,81.90
2022-11-25T22:05:49.440Z,83.90
2022-11-25T22:10:13.675Z,80.10
2022-11-25T22:13:00.328Z,108.00
2022-11-25T22:15:54.191Z,80.40
2022-11-25T22:18:45.749Z,88.50
2022-11-25T22:21:32.277Z,82.20
2022-11-25T22:24:24.029Z,69.60
2022-11-25T22:27:21.643Z,59.80
2022-11-25T22:30:13.993Z,74.50
2022-11-25T22:33:01.787Z,83.00
2022-11-25T22:35:53.573Z,65.40
2022-11-25T22:38:45.673Z,90.10
2022-11-25T22:41:32.555Z,75.20
2022-11-25T22:44:40.176Z,72.30
2022-11-25T22:47:43.773Z,110.70
2022-11-25T22:50:32.264Z,81.10
2022-11-25T22:53:19.202Z,80.40
2022-11-25T22:56:09.337Z,68.30
2022-11-25T22:59:01.297Z,77.50
2022-11-25T23:01:53.201Z,86.70
2022-11-25T23:04:48.088Z,57.50
2022-11-25T23:09:03.434Z,68.40
2022-11-25T23:11:54.997Z,77.70
2022-11-25T23:14:41.850Z,68.50
2022-11-25T23:17:28.696Z,82.60
2022-11-25T23:20:22.937Z,79.50
2022-11-25T23:23:16.408Z,86.30
2022-11-25T23:26:09.987Z,89.20
2022-11-25T23:29:01.745Z,75.90
2022-11-25T23:31:48.645Z,77.90
2022-11-25T23:34:35.688Z,102.60
2022-11-25T23:37:22.918Z,80.70
2022-11-25T23:40:18.085Z,91.30
2022-11-25T23:43:31.875Z,75.10
2022-11-25T23:46:21.540Z,68.30
2022-11-25T23:49:35.766Z,73.40
2022-11-25T23:52:28.032Z,56.70
2022-11-25T23:58:03.387Z,60.50
